Time;durP1;ratioP1;P1;durP2;ratioP2;P2;SDS_P1;SDS_P2;PMS_P1;PMS_P2;Temp;Humidity;BMP_temperature;BMP_pressure;BME280_temperature;BME280_humidity;BME280_pressure;Samples;Min_cycle;Max_cycle;Signal;HPM_P1;HPM_P2
2022/06/28 00:01:21;;;;;;;5.40;3.40;;;;;;;21.97;85.92;100823.44;5016496;28;20189;-72
2022/06/28 00:03:48;;;;;;;5.23;3.23;;;;;;;21.96;85.26;100827.09;5021147;28;20197;-71
2022/06/28 00:06:14;;;;;;;3.20;2.90;;;;;;;21.96;84.82;100824.44;5006037;28;20684;-71
2022/06/28 00:08:41;;;;;;;4.00;3.70;;;;;;;21.91;85.19;100833.53;5008818;28;20204;-71
2022/06/28 00:11:07;;;;;;;4.17;3.40;;;;;;;21.91;85.57;100844.16;5015740;28;20223;-71
2022/06/28 00:13:34;;;;;;;3.60;3.30;;;;;;;21.87;85.34;100845.34;5010664;28;20232;-70
2022/06/28 00:16:06;;;;;;;6.20;3.67;;;;;;;21.88;85.10;100852.38;5011254;28;20211;-71
2022/06/28 00:18:34;;;;;;;4.80;3.30;;;;;;;21.85;84.54;100854.38;5018422;28;20217;-70
2022/06/28 00:21:02;;;;;;;5.13;3.63;;;;;;;21.86;84.61;100848.97;5016271;28;20653;-71
2022/06/28 00:23:29;;;;;;;3.77;3.40;;;;;;;21.82;84.83;100842.16;5019276;28;20254;-70
2022/06/28 00:25:55;;;;;;;4.10;3.43;;;;;;;21.79;85.15;100831.75;5010766;28;20539;-71
2022/06/28 00:28:22;;;;;;;3.63;3.10;;;;;;;21.74;85.63;100837.41;5011903;28;20204;-71
2022/06/28 00:30:48;;;;;;;4.10;3.47;;;;;;;21.65;87.40;100840.69;5007736;28;20376;-71
2022/06/28 00:33:16;;;;;;;4.17;3.43;;;;;;;21.53;90.50;100844.22;4992632;28;20685;-71
2022/06/28 00:35:43;;;;;;;3.80;3.40;;;;;;;21.35;92.54;100839.16;5017434;28;20215;-71
2022/06/28 00:38:10;;;;;;;6.43;3.47;;;;;;;21.24;94.62;100832.88;4999799;28;20188;-71
2022/06/28 00:40:45;;;;;;;3.70;3.27;;;;;;;21.08;97.40;100841.88;5011813;28;20781;-71
2022/06/28 00:43:12;;;;;;;5.37;3.67;;;;;;;21.01;99.22;100877.69;5008348;28;20210;-70
2022/06/28 00:45:39;;;;;;;3.83;3.43;;;;;;;20.98;100.00;100904.38;4996030;28;20231;-71
2022/06/28 00:48:06;;;;;;;6.07;3.57;;;;;;;20.86;100.00;100915.78;5003997;28;20211;-70
2022/06/28 00:50:35;;;;;;;6.23;4.30;;;;;;;20.67;100.00;100924.06;5014914;28;20223;-70
2022/06/28 00:53:03;;;;;;;6.03;4.00;;;;;;;20.46;100.00;100937.69;5013564;28;20212;-70
2022/06/28 00:55:30;;;;;;;5.27;3.70;;;;;;;20.24;100.00;100948.75;5007472;28;20200;-70
2022/06/28 00:57:56;;;;;;;4.87;3.83;;;;;;;20.09;100.00;100966.44;5011966;28;20210;-70
2022/06/28 01:00:23;;;;;;;5.90;4.27;;;;;;;20.03;100.00;100961.50;5013651;28;20587;-70
2022/06/28 01:02:50;;;;;;;7.07;4.37;;;;;;;19.88;100.00;100970.41;5014573;28;20569;-70
2022/06/28 01:05:17;;;;;;;5.80;4.13;;;;;;;19.74;100.00;100973.84;5014347;28;20591;-69
2022/06/28 01:07:46;;;;;;;4.43;3.77;;;;;;;19.64;100.00;100965.56;5006955;28;20297;-70
2022/06/28 01:10:13;;;;;;;5.27;4.30;;;;;;;19.63;100.00;100969.13;5013452;28;20227;-70
2022/06/28 01:12:40;;;;;;;6.47;4.10;;;;;;;19.62;100.00;100985.97;4992643;28;20255;-70
2022/06/28 01:15:08;;;;;;;7.67;4.33;;;;;;;19.42;100.00;100998.56;5016555;28;20189;-70
2022/06/28 01:17:48;;;;;;;10.23;4.40;;;;;;;19.17;100.00;100999.09;4995361;28;20290;-70
2022/06/28 01:20:53;;;;;;;4.77;4.07;;;;;;;19.10;100.00;100995.06;4995502;28;20228;-70
2022/06/28 01:23:25;;;;;;;7.03;4.53;;;;;;;19.07;100.00;100987.34;4998298;28;20193;-70
2022/06/28 01:26:04;;;;;;;5.47;4.37;;;;;;;19.09;100.00;101004.78;4999658;28;20221;-70
2022/06/28 01:28:43;;;;;;;4.73;3.90;;;;;;;19.08;100.00;101005.75;5001491;28;20204;-70
2022/06/28 01:31:19;;;;;;;4.53;3.57;;;;;;;19.08;100.00;101011.03;4996678;28;20255;-70
2022/06/28 01:33:48;;;;;;;5.20;4.33;;;;;;;19.08;100.00;101015.44;5003586;28;20303;-71
2022/06/28 01:36:16;;;;;;;5.47;4.03;;;;;;;19.07;100.00;101033.09;5014105;28;20197;-71
2022/06/28 01:38:45;;;;;;;7.67;3.97;;;;;;;19.11;100.00;101037.28;5018208;28;20296;-70
2022/06/28 01:41:32;;;;;;;4.47;3.87;;;;;;;19.08;100.00;101034.81;5015885;28;20219;-70
2022/06/28 01:44:04;;;;;;;5.00;4.03;;;;;;;19.01;100.00;101033.44;5018725;28;20299;-71
2022/06/28 01:46:31;;;;;;;4.53;3.90;;;;;;;18.97;100.00;101025.78;4998021;28;20196;-71
2022/06/28 01:49:04;;;;;;;5.50;3.53;;;;;;;18.91;100.00;101042.81;5014400;28;20205;-71
2022/06/28 01:51:32;;;;;;;3.97;3.27;;;;;;;18.85;100.00;101048.41;4991941;28;20232;-70
2022/06/28 01:54:00;;;;;;;4.67;3.90;;;;;;;18.79;100.00;101067.22;5015033;28;20224;-71
2022/06/28 01:56:33;;;;;;;3.80;3.40;;;;;;;18.78;100.00;101079.56;5010332;28;20216;-71
2022/06/28 01:59:10;;;;;;;4.00;3.47;;;;;;;18.90;100.00;101083.38;5013448;28;20283;-71
2022/06/28 02:01:48;;;;;;;4.77;3.97;;;;;;;18.87;100.00;101108.19;5016096;28;20283;-70
2022/06/28 02:04:20;;;;;;;4.67;3.57;;;;;;;18.87;100.00;101124.03;5006875;28;20672;-71
2022/06/28 02:06:49;;;;;;;4.20;3.80;;;;;;;18.81;100.00;101136.66;5004984;28;20255;-70
2022/06/28 02:09:18;;;;;;;5.50;4.10;;;;;;;18.85;100.00;101141.72;4998390;28;20248;-70
2022/06/28 02:11:47;;;;;;;5.40;3.93;;;;;;;18.90;100.00;101154.69;5001362;28;20518;-71
2022/06/28 02:14:17;;;;;;;6.20;4.20;;;;;;;18.95;100.00;101150.03;5003520;28;20220;-71
2022/06/28 02:16:44;;;;;;;6.20;4.17;;;;;;;18.90;100.00;101149.41;5002899;28;20236;-70
2022/06/28 02:19:10;;;;;;;6.33;4.17;;;;;;;18.90;100.00;101142.34;4997314;28;20201;-71
2022/06/28 02:21:39;;;;;;;5.73;4.40;;;;;;;18.88;100.00;101153.94;5004351;28;20311;-70
2022/06/28 02:24:08;;;;;;;6.67;4.20;;;;;;;18.86;100.00;101153.16;4998232;28;20612;-70
2022/06/28 02:26:38;;;;;;;5.13;4.53;;;;;;;18.82;100.00;101152.47;4998384;28;20335;-70
2022/06/28 02:29:05;;;;;;;5.17;4.13;;;;;;;18.85;100.00;101154.09;5016109;28;20203;-70
2022/06/28 02:31:33;;;;;;;5.83;4.17;;;;;;;18.91;100.00;101148.50;5003627;28;20212;-70
2022/06/28 02:34:00;;;;;;;5.50;4.10;;;;;;;18.86;100.00;101124.94;5015667;28;20220;-70
2022/06/28 02:41:58;;;;;;;5.93;4.13;;;;;;;18.73;100.00;101114.16;5012537;28;20557;-70
2022/06/28 02:44:24;;;;;;;4.73;4.23;;;;;;;18.67;100.00;101109.19;4997231;28;20209;-70
2022/06/28 02:46:51;;;;;;;5.40;4.40;;;;;;;18.70;100.00;101108.19;5008568;28;20213;-70
2022/06/28 02:49:18;;;;;;;8.20;5.17;;;;;;;18.68;100.00;101104.75;5019790;28;20709;-70
2022/06/28 02:51:45;;;;;;;7.03;4.43;;;;;;;18.66;100.00;101098.69;5000301;28;20555;-70
2022/06/28 02:54:11;;;;;;;5.00;4.40;;;;;;;18.59;100.00;101084.97;5015420;28;20225;-70
2022/06/28 02:56:40;;;;;;;5.27;4.50;;;;;;;18.58;100.00;101083.25;5021578;28;20564;-70
2022/06/28 02:59:07;;;;;;;5.00;4.30;;;;;;;18.55;100.00;101073.69;5017261;28;20287;-70
2022/06/28 03:01:34;;;;;;;6.63;4.63;;;;;;;18.41;100.00;101078.00;4996170;28;20720;-70
2022/06/28 03:04:00;;;;;;;5.93;4.30;;;;;;;18.33;100.00;101071.34;5006895;28;20242;-70
2022/06/28 03:06:28;;;;;;;5.40;4.40;;;;;;;18.32;100.00;101066.13;5000017;28;20232;-70
2022/06/28 03:08:54;;;;;;;8.10;4.63;;;;;;;18.32;100.00;101061.69;5016346;28;20263;-70
2022/06/28 03:11:21;;;;;;;6.33;4.63;;;;;;;18.34;100.00;101059.81;4999390;28;20274;-70
2022/06/28 03:13:47;;;;;;;6.80;5.40;;;;;;;18.25;100.00;101065.59;5019665;28;20215;-70
2022/06/28 03:16:15;;;;;;;8.33;5.63;;;;;;;18.32;100.00;101060.84;4998907;28;20209;-70
2022/06/28 03:18:41;;;;;;;7.17;5.30;;;;;;;18.23;100.00;101064.81;4999616;28;20199;-70
2022/06/28 03:21:08;;;;;;;5.83;5.13;;;;;;;18.13;100.00;101063.56;5021023;28;20216;-70
2022/06/28 03:23:34;;;;;;;7.07;4.60;;;;;;;18.13;100.00;101061.81;5013828;28;20300;-70
2022/06/28 03:26:00;;;;;;;6.30;4.93;;;;;;;18.18;100.00;101058.91;4997414;28;20192;-71
2022/06/28 03:28:27;;;;;;;7.33;5.97;;;;;;;18.17;100.00;101047.53;5012612;28;20244;-70
2022/06/28 03:30:58;;;;;;;8.47;5.60;;;;;;;18.15;100.00;101045.88;4997757;28;20220;-70
2022/06/28 03:33:26;;;;;;;8.80;6.23;;;;;;;18.16;100.00;101031.75;5020356;28;20216;-69
2022/06/28 03:35:53;;;;;;;6.73;5.17;;;;;;;18.13;100.00;101018.72;5000296;28;20201;-70
2022/06/28 03:38:22;;;;;;;10.00;6.63;;;;;;;18.10;100.00;101019.75;5017102;28;20258;-69
2022/06/28 03:41:09;;;;;;;8.57;5.80;;;;;;;17.98;100.00;100999.28;5017191;28;20220;-69
2022/06/28 03:43:37;;;;;;;8.57;6.30;;;;;;;17.94;100.00;100997.69;5021196;28;20302;-69
2022/06/28 03:46:04;;;;;;;8.03;5.97;;;;;;;18.03;100.00;100999.00;5020291;28;20295;-70
2022/06/28 03:48:38;;;;;;;9.93;6.53;;;;;;;18.06;100.00;101004.97;5005346;28;20217;-69
2022/06/28 03:51:24;;;;;;;8.80;6.70;;;;;;;18.14;100.00;100991.41;5005794;28;20289;-69
2022/06/28 03:54:14;;;;;;;11.80;7.13;;;;;;;18.07;100.00;100996.16;5009486;28;20208;-70
2022/06/28 03:56:47;;;;;;;11.20;6.87;;;;;;;17.97;100.00;101002.81;4994528;28;20250;-70
2022/06/28 03:59:15;;;;;;;9.77;7.13;;;;;;;17.91;100.00;100997.88;5011563;28;20227;-69
2022/06/28 04:01:41;;;;;;;10.80;7.27;;;;;;;17.79;100.00;100991.41;5017830;28;20296;-69
2022/06/28 04:04:09;;;;;;;11.33;7.37;;;;;;;17.77;100.00;100988.84;5008356;28;20560;-70
2022/06/28 04:06:40;;;;;;;10.03;7.47;;;;;;;17.78;100.00;100987.91;5018348;28;20204;-69
2022/06/28 04:09:06;;;;;;;13.23;8.63;;;;;;;17.72;100.00;100985.56;5018392;28;20201;-70
2022/06/28 04:11:33;;;;;;;10.43;7.63;;;;;;;17.66;100.00;100974.47;4997361;28;20285;-70
2022/06/28 04:14:01;;;;;;;12.93;8.53;;;;;;;17.65;100.00;100975.44;4997393;28;20307;-69
2022/06/28 04:16:29;;;;;;;11.27;8.33;;;;;;;17.68;100.00;100976.13;5008880;28;20274;-70
2022/06/28 04:18:59;;;;;;;13.83;9.13;;;;;;;17.70;100.00;100981.31;5008994;28;20657;-70
2022/06/28 04:21:33;;;;;;;12.33;8.70;;;;;;;17.65;100.00;100980.69;5009242;28;20207;-70
2022/06/28 04:24:07;;;;;;;13.20;8.50;;;;;;;17.60;100.00;100988.81;5004092;28;20540;-70
2022/06/28 04:26:36;;;;;;;13.90;8.43;;;;;;;17.62;100.00;100980.84;4995242;28;20204;-70
2022/06/28 04:29:06;;;;;;;12.80;8.80;;;;;;;17.66;100.00;100987.66;4997985;28;20196;-69
2022/06/28 04:31:33;;;;;;;12.83;8.77;;;;;;;17.60;100.00;100992.31;4989428;28;20289;-69
2022/06/28 04:34:00;;;;;;;14.43;9.03;;;;;;;17.67;100.00;100999.94;5012125;28;20247;-69
2022/06/28 04:36:34;;;;;;;15.23;9.90;;;;;;;17.68;100.00;100999.84;4992475;28;20212;-71
2022/06/28 04:39:00;;;;;;;14.27;9.50;;;;;;;17.70;100.00;101005.91;4991763;28;20200;-69
2022/06/28 04:41:33;;;;;;;15.20;9.53;;;;;;;17.72;100.00;100997.91;4997635;28;20703;-70
2022/06/28 04:44:18;;;;;;;15.03;9.90;;;;;;;17.74;100.00;100996.91;4989242;28;20226;-69
2022/06/28 04:46:50;;;;;;;15.70;9.77;;;;;;;17.71;100.00;101001.47;5001923;28;20665;-70
2022/06/28 04:49:20;;;;;;;14.80;10.13;;;;;;;17.68;100.00;101006.91;4988725;28;20220;-70
2022/06/28 04:51:53;;;;;;;15.60;8.77;;;;;;;17.74;100.00;101011.88;4988524;28;20207;-70
2022/06/28 04:54:25;;;;;;;13.57;9.40;;;;;;;17.69;100.00;101008.59;5014858;28;20206;-70
2022/06/28 04:57:14;;;;;;;12.77;8.83;;;;;;;17.69;100.00;101011.25;5010566;28;20204;-70
2022/06/28 04:59:49;;;;;;;14.00;10.07;;;;;;;17.65;100.00;101001.78;4991692;28;20226;-70
2022/06/28 05:02:26;;;;;;;14.13;9.03;;;;;;;17.75;100.00;101011.81;4997878;28;20200;-70
2022/06/28 05:04:53;;;;;;;15.90;9.63;;;;;;;17.82;100.00;101006.19;4995038;28;20373;-70
2022/06/28 05:07:26;;;;;;;15.97;9.40;;;;;;;17.82;100.00;101019.38;4988049;28;20625;-70
2022/06/28 05:09:53;;;;;;;15.33;9.77;;;;;;;17.82;100.00;101019.38;4997139;28;20223;-70
2022/06/28 05:12:20;;;;;;;15.13;9.30;;;;;;;17.96;100.00;101024.88;4995125;28;20192;-71
2022/06/28 05:14:46;;;;;;;14.30;9.77;;;;;;;17.98;100.00;101020.38;5005512;28;20711;-70
2022/06/28 05:17:14;;;;;;;15.93;10.67;;;;;;;18.05;100.00;101024.41;4988798;28;20280;-70
2022/06/28 05:19:41;;;;;;;15.73;10.23;;;;;;;18.06;100.00;101014.69;5012720;28;20227;-70
2022/06/28 05:22:08;;;;;;;17.27;10.77;;;;;;;18.08;100.00;101029.53;4992002;28;20211;-70
2022/06/28 05:24:46;;;;;;;15.50;10.03;;;;;;;18.11;100.00;101036.41;4988355;28;20200;-71
2022/06/28 05:27:13;;;;;;;14.67;10.13;;;;;;;18.10;100.00;101029.44;5007911;28;20205;-70
2022/06/28 05:29:40;;;;;;;15.17;10.03;;;;;;;18.12;100.00;101033.72;4995086;28;20232;-70
2022/06/28 05:32:07;;;;;;;15.57;9.70;;;;;;;18.23;100.00;101032.31;5002891;28;20633;-70
2022/06/28 05:34:34;;;;;;;13.77;9.47;;;;;;;18.29;100.00;101034.63;5008780;28;20220;-70
2022/06/28 05:37:00;;;;;;;16.37;9.83;;;;;;;18.34;100.00;101044.00;5017134;28;20748;-70
2022/06/28 05:39:26;;;;;;;12.23;9.10;;;;;;;18.38;100.00;101057.91;5018199;28;20718;-70
2022/06/28 05:41:54;;;;;;;14.87;8.90;;;;;;;18.39;100.00;101056.97;5013285;28;20213;-70
2022/06/28 05:44:20;;;;;;;19.00;9.27;;;;;;;18.44;100.00;101064.66;4999746;28;20319;-70
2022/06/28 05:46:49;;;;;;;14.23;9.60;;;;;;;18.44;100.00;101069.94;5008361;28;20200;-70
2022/06/28 05:49:15;;;;;;;12.70;9.60;;;;;;;18.53;100.00;101074.72;4994661;28;20201;-70
2022/06/28 05:51:43;;;;;;;13.10;9.43;;;;;;;18.50;100.00;101074.88;4997921;28;20295;-70
2022/06/28 05:54:12;;;;;;;12.53;9.37;;;;;;;18.47;100.00;101077.69;5009549;28;20704;-70
2022/06/28 05:56:39;;;;;;;14.33;9.10;;;;;;;18.45;100.00;101083.06;5011634;28;20199;-70
2022/06/28 05:59:07;;;;;;;13.63;9.10;;;;;;;18.41;100.00;101091.19;4997416;28;20240;-70
2022/06/28 06:01:34;;;;;;;10.83;7.60;;;;;;;18.33;100.00;101094.25;4986068;28;20213;-71
2022/06/28 06:04:01;;;;;;;10.93;7.57;;;;;;;18.24;100.00;101094.69;5012670;28;20196;-70
2022/06/28 06:06:27;;;;;;;11.13;7.63;;;;;;;18.22;100.00;101093.94;4999820;28;20291;-70
2022/06/28 06:08:54;;;;;;;12.47;7.87;;;;;;;18.15;100.00;101104.81;5024100;28;20203;-70
2022/06/28 06:11:20;;;;;;;12.43;7.93;;;;;;;18.13;100.00;101101.41;5001265;28;20591;-70
2022/06/28 06:13:47;;;;;;;11.23;7.53;;;;;;;18.13;100.00;101114.59;5011741;28;20206;-70
2022/06/28 06:16:15;;;;;;;9.50;7.50;;;;;;;18.08;100.00;101113.09;5008500;28;20197;-70
2022/06/28 06:18:41;;;;;;;9.63;7.10;;;;;;;18.10;100.00;101119.13;5003750;28;20309;-70
2022/06/28 06:21:08;;;;;;;10.10;7.40;;;;;;;18.15;100.00;101130.31;5000275;28;20643;-70
2022/06/28 06:23:35;;;;;;;10.10;6.93;;;;;;;18.08;100.00;101134.19;5003193;28;20207;-70
2022/06/28 06:26:18;;;;;;;8.20;6.43;;;;;;;17.96;100.00;101152.34;4994580;28;20207;-70
2022/06/28 06:28:44;;;;;;;9.17;6.50;;;;;;;17.97;100.00;101146.13;5019858;28;20199;-70
2022/06/28 06:31:12;;;;;;;8.17;5.97;;;;;;;17.90;100.00;101159.69;5004119;28;20227;-70
2022/06/28 06:33:58;;;;;;;7.93;5.60;;;;;;;17.84;100.00;101165.25;5020631;28;20208;-70
2022/06/28 06:36:46;;;;;;;7.57;5.90;;;;;;;18.03;100.00;101181.06;5011453;28;20213;-70
2022/06/28 06:39:15;;;;;;;9.13;6.37;;;;;;;18.00;100.00;101184.72;5012899;28;20233;-70
2022/06/28 06:41:41;;;;;;;8.43;6.20;;;;;;;18.03;100.00;101188.97;5016914;28;20383;-70
2022/06/28 06:44:08;;;;;;;8.13;5.93;;;;;;;18.03;100.00;101192.47;5016939;28;20673;-70
2022/06/28 06:46:36;;;;;;;8.37;6.17;;;;;;;18.00;100.00;101207.59;5024402;28;20701;-71
2022/06/28 06:49:03;;;;;;;7.90;5.63;;;;;;;17.99;100.00;101209.38;4992298;28;20211;-71
2022/06/28 06:51:31;;;;;;;7.20;5.70;;;;;;;18.10;100.00;101203.56;5002604;28;20207;-71
2022/06/28 06:53:58;;;;;;;8.27;5.87;;;;;;;18.15;100.00;101214.75;4996108;28;20200;-70
2022/06/28 06:56:25;;;;;;;6.77;5.20;;;;;;;18.14;100.00;101223.63;4997814;28;20204;-71
2022/06/28 06:58:52;;;;;;;7.50;5.70;;;;;;;18.12;100.00;101233.41;5016763;28;20207;-70
2022/06/28 07:01:18;;;;;;;7.60;5.50;;;;;;;18.14;100.00;101232.38;5000202;28;20224;-71
2022/06/28 07:03:45;;;;;;;5.73;5.03;;;;;;;18.26;100.00;101238.88;4997339;28;20299;-71
2022/06/28 07:06:13;;;;;;;7.23;5.00;;;;;;;18.29;100.00;101241.34;5020031;28;20207;-71
2022/06/28 07:08:40;;;;;;;6.50;4.90;;;;;;;18.34;100.00;101246.38;5011592;28;20201;-71
2022/06/28 07:11:10;;;;;;;5.90;4.83;;;;;;;18.31;100.00;101243.91;5006535;28;20696;-71
2022/06/28 07:13:36;;;;;;;6.27;4.80;;;;;;;18.28;100.00;101242.28;5012426;28;20595;-71
2022/06/28 07:16:03;;;;;;;7.10;5.40;;;;;;;18.37;100.00;101240.13;4999555;28;20212;-71
2022/06/28 07:18:29;;;;;;;6.67;4.97;;;;;;;18.27;100.00;101248.47;5017503;28;20220;-70
2022/06/28 07:20:58;;;;;;;5.53;4.87;;;;;;;18.22;100.00;101254.91;5013770;28;20299;-70
2022/06/28 07:23:26;;;;;;;5.87;4.30;;;;;;;18.35;100.00;101256.03;5014283;28;20211;-70
2022/06/28 07:25:53;;;;;;;4.90;4.40;;;;;;;18.27;100.00;101259.03;5016761;28;20192;-71
2022/06/28 07:28:20;;;;;;;5.27;4.20;;;;;;;18.34;100.00;101262.22;5011963;28;20707;-71
2022/06/28 07:30:47;;;;;;;5.47;4.63;;;;;;;18.25;100.00;101260.88;5020630;28;20242;-71
2022/06/28 07:33:14;;;;;;;4.50;3.77;;;;;;;18.16;100.00;101266.63;5015032;28;20615;-71
2022/06/28 07:35:41;;;;;;;5.80;3.60;;;;;;;18.23;100.00;101264.53;4990112;28;20316;-70
2022/06/28 07:38:08;;;;;;;5.03;4.30;;;;;;;18.30;100.00;101276.50;5009890;28;20216;-71
2022/06/28 07:40:55;;;;;;;5.10;3.90;;;;;;;18.39;100.00;101281.34;5017404;28;20232;-71
2022/06/28 07:43:51;;;;;;;3.80;3.40;;;;;;;18.41;100.00;101286.56;4959838;28;20219;-70
2022/06/28 07:46:20;;;;;;;3.83;3.30;;;;;;;18.42;100.00;101289.13;5022122;28;20266;-71
2022/06/28 07:48:50;;;;;;;3.30;2.93;;;;;;;18.49;100.00;101297.59;5002098;28;20287;-71
2022/06/28 07:54:03;;;;;;;4.63;2.90;;;;;;;18.68;100.00;101310.75;4992901;28;20193;-71
2022/06/28 07:56:35;;;;;;;3.10;2.80;;;;;;;18.79;100.00;101326.94;5011675;28;20705;-71
2022/06/28 07:59:02;;;;;;;3.10;2.80;;;;;;;18.85;100.00;101324.00;4997562;28;20203;-71
2022/06/28 08:01:32;;;;;;;3.67;2.93;;;;;;;18.80;100.00;101322.50;4994041;28;20259;-71
2022/06/28 08:04:01;;;;;;;3.10;2.80;;;;;;;18.84;100.00;101324.09;4995983;28;20203;-71
2022/06/28 08:06:28;;;;;;;5.20;2.87;;;;;;;18.96;100.00;101325.25;4998873;28;20214;-71
2022/06/28 08:08:58;;;;;;;2.97;2.63;;;;;;;19.01;100.00;101334.66;5001687;28;20200;-71
2022/06/28 08:11:25;;;;;;;4.00;2.60;;;;;;;19.06;100.00;101339.72;4997056;28;20654;-71
2022/06/28 08:13:57;;;;;;;3.60;3.07;;;;;;;19.07;100.00;101336.16;4992889;28;20565;-71
2022/06/28 08:16:24;;;;;;;3.33;2.60;;;;;;;19.08;100.00;101348.41;5014651;28;20224;-72
2022/06/28 08:18:51;;;;;;;4.10;2.70;;;;;;;19.16;100.00;101345.41;4993532;28;20386;-71
2022/06/28 08:21:17;;;;;;;3.20;2.60;;;;;;;19.36;100.00;101354.94;4995186;28;20231;-71
2022/06/28 08:23:44;;;;;;;4.13;2.83;;;;;;;19.44;100.00;101358.91;4999902;28;20576;-71
2022/06/28 08:26:11;;;;;;;3.30;2.50;;;;;;;19.66;100.00;101355.13;5003377;28;20197;-71
2022/06/28 08:28:38;;;;;;;2.37;2.17;;;;;;;19.79;100.00;101368.63;5003477;28;20228;-71
2022/06/28 08:31:06;;;;;;;2.97;2.17;;;;;;;19.74;100.00;101376.78;5018940;28;20235;-71
2022/06/28 08:33:32;;;;;;;2.33;2.00;;;;;;;19.65;100.00;101385.19;5021462;28;20433;-71
2022/06/28 08:35:58;;;;;;;2.13;1.93;;;;;;;19.78;100.00;101386.28;5008640;28;20215;-71
2022/06/28 08:38:25;;;;;;;1.90;1.80;;;;;;;19.67;100.00;101380.66;5018389;28;20215;-71
2022/06/28 08:40:52;;;;;;;1.93;1.83;;;;;;;19.90;100.00;101378.63;5018713;28;20225;-71
2022/06/28 08:43:19;;;;;;;2.27;2.07;;;;;;;19.88;100.00;101383.16;5014002;28;20532;-71
2022/06/28 08:45:46;;;;;;;2.03;1.77;;;;;;;19.91;100.00;101385.63;5015239;28;20201;-71
2022/06/28 08:48:22;;;;;;;1.90;1.70;;;;;;;19.84;100.00;101396.53;5016495;28;20201;-71
2022/06/28 08:50:52;;;;;;;4.00;2.00;;;;;;;20.07;100.00;101390.94;5016819;28;20629;-71
2022/06/28 08:53:20;;;;;;;2.37;1.90;;;;;;;20.50;100.00;101394.75;5014280;28;20687;-71
2022/06/28 08:55:48;;;;;;;2.00;1.80;;;;;;;20.97;100.00;101391.22;5021165;28;20227;-71
2022/06/28 08:58:16;;;;;;;2.17;1.97;;;;;;;21.27;100.00;101390.38;5015737;28;20208;-71
2022/06/28 09:00:43;;;;;;;2.10;1.90;;;;;;;21.30;95.82;101402.59;5007583;28;20224;-71
2022/06/28 09:03:09;;;;;;;2.07;1.80;;;;;;;21.12;94.60;101397.44;5012030;28;20709;-71
2022/06/28 09:05:37;;;;;;;2.10;1.90;;;;;;;21.17;99.19;101403.31;5010260;28;20197;-71
2022/06/28 09:08:04;;;;;;;1.83;1.70;;;;;;;21.03;94.17;101407.72;5015427;28;20211;-71
2022/06/28 09:10:30;;;;;;;1.60;1.50;;;;;;;20.80;94.24;101409.88;5012132;28;20224;-71
2022/06/28 09:13:11;;;;;;;2.73;1.53;;;;;;;20.69;94.78;101402.56;5016002;28;20801;-71
2022/06/28 09:15:53;;;;;;;2.40;1.70;;;;;;;20.76;94.37;101400.41;5018103;28;20215;-71
2022/06/28 09:18:22;;;;;;;3.43;1.90;;;;;;;21.28;92.87;101407.13;5014681;28;20196;-71
2022/06/28 09:20:54;;;;;;;1.63;1.53;;;;;;;21.73;95.29;101394.75;5010877;28;20235;-71
2022/06/28 09:23:23;;;;;;;2.70;1.90;;;;;;;21.88;88.80;101404.44;5015725;28;20223;-71
2022/06/28 09:25:50;;;;;;;1.87;1.77;;;;;;;21.63;87.27;101399.75;5010829;28;20209;-71
2022/06/28 09:28:24;;;;;;;1.93;1.60;;;;;;;21.64;91.52;101388.22;5009357;28;20196;-71
2022/06/28 09:30:50;;;;;;;2.03;1.90;;;;;;;21.49;87.37;101395.28;5044658;23;20224;-76
2022/06/28 09:33:25;;;;;;;2.07;1.80;;;;;;;21.54;89.49;101389.72;5061110;28;20190;-76
2022/06/28 09:35:54;;;;;;;2.50;1.93;;;;;;;21.78;96.34;101375.91;5064427;28;20218;-76
2022/06/28 09:38:30;;;;;;;1.97;1.87;;;;;;;22.03;90.02;101386.69;5063499;28;20406;-76
2022/06/28 09:40:57;;;;;;;2.00;1.80;;;;;;;22.13;85.75;101387.84;5057158;28;20251;-76
2022/06/28 09:43:31;;;;;;;1.70;1.60;;;;;;;22.37;82.44;101397.03;5048478;28;20689;-76
2022/06/28 09:45:58;;;;;;;1.70;1.60;;;;;;;22.56;87.48;101383.41;5046840;28;20200;-76
2022/06/28 09:48:24;;;;;;;1.80;1.70;;;;;;;22.42;90.08;101376.34;5051296;28;20199;-76
2022/06/28 09:50:59;;;;;;;3.37;1.80;;;;;;;22.52;87.02;101374.81;5051282;28;20218;-76
2022/06/28 09:53:28;;;;;;;2.13;1.70;;;;;;;22.66;83.73;101382.72;5050592;28;20294;-76
2022/06/28 09:55:58;;;;;;;2.10;1.90;;;;;;;22.94;83.50;101375.59;5052865;28;20207;-76
2022/06/28 09:58:26;;;;;;;1.77;1.67;;;;;;;22.98;80.24;101376.25;5047278;28;20727;-76
2022/06/28 10:00:52;;;;;;;1.50;1.40;;;;;;;23.31;79.18;101372.31;5048816;28;20307;-76
2022/06/28 10:03:19;;;;;;;1.70;1.60;;;;;;;23.40;78.60;101372.50;5049501;28;20191;-76
2022/06/28 10:05:46;;;;;;;1.60;1.50;;;;;;;23.39;78.61;101375.28;5043497;28;20664;-76
2022/06/28 10:08:15;;;;;;;1.70;1.60;;;;;;;23.29;78.29;101382.16;5050723;28;20218;-76
2022/06/28 10:10:42;;;;;;;1.90;1.70;;;;;;;23.06;79.29;101380.13;5054792;28;20223;-75
2022/06/28 10:15:57;;;;;;;1.70;1.60;;;;;;;22.61;78.25;101371.53;5051598;28;20214;-76
2022/06/28 10:18:26;;;;;;;1.70;1.60;;;;;;;22.52;79.72;101366.81;5049276;28;20202;-76
2022/06/28 10:20:53;;;;;;;2.00;1.67;;;;;;;22.81;80.07;101354.31;5051210;28;20215;-76
2022/06/28 10:23:27;;;;;;;2.60;1.60;;;;;;;22.90;77.47;101360.78;5051869;28;20198;-75
2022/06/28 10:26:19;;;;;;;1.60;1.50;;;;;;;23.21;77.42;101361.44;5047609;28;20225;-76
2022/06/28 10:28:48;;;;;;;1.90;1.70;;;;;;;23.32;74.42;101361.53;5026800;28;20203;-76
2022/06/28 10:31:37;;;;;;;1.58;1.48;;;;;;;23.44;67.82;101367.81;5046523;28;20229;-76
2022/06/28 10:34:07;;;;;;;1.60;1.50;;;;;;;23.43;71.15;101374.13;5043548;28;20268;-76
2022/06/28 10:36:43;;;;;;;2.22;1.92;;;;;;;23.43;69.72;101369.66;5047974;28;20225;-76
2022/06/28 10:39:14;;;;;;;1.75;1.63;;;;;;;23.58;69.45;101377.53;5048723;28;20245;-76
2022/06/28 10:41:42;;;;;;;2.17;1.60;;;;;;;23.63;70.73;101370.91;5046002;28;20220;-75
2022/06/28 10:44:12;;;;;;;1.67;1.58;;;;;;;23.76;70.71;101368.28;5050071;28;20204;-76
2022/06/28 10:46:39;;;;;;;1.77;1.55;;;;;;;24.18;73.23;101358.19;5050199;28;20304;-76
2022/06/28 10:49:10;;;;;;;1.50;1.40;;;;;;;24.07;70.56;101365.28;5044384;28;20678;-75
2022/06/28 10:51:41;;;;;;;1.60;1.50;;;;;;;23.61;69.83;101361.34;5050147;28;20680;-76
2022/06/28 10:54:09;;;;;;;1.70;1.60;;;;;;;23.69;68.49;101364.31;5049389;28;20608;-76
2022/06/28 10:56:42;;;;;;;1.70;1.60;;;;;;;23.71;66.04;101358.88;5047690;28;20221;-76
2022/06/28 10:59:10;;;;;;;1.55;1.45;;;;;;;23.93;64.93;101360.94;5049222;28;20201;-76
2022/06/28 11:01:53;;;;;;;1.70;1.60;;;;;;;23.99;63.95;101363.13;5050213;28;20655;-76
2022/06/28 11:04:26;;;;;;;1.58;1.48;;;;;;;23.99;65.24;101369.34;5061833;28;20710;-76
2022/06/28 11:06:55;;;;;;;1.73;1.63;;;;;;;23.69;64.31;101366.97;5050225;28;20203;-76
2022/06/28 11:09:29;;;;;;;1.63;1.52;;;;;;;23.85;63.67;101373.91;5049443;28;20188;-76
2022/06/28 11:12:11;;;;;;;2.00;1.60;;;;;;;23.78;63.86;101371.69;5050232;28;20578;-76
2022/06/28 11:14:47;;;;;;;1.88;1.75;;;;;;;23.97;68.32;101368.59;5048139;28;20563;-76
2022/06/28 11:17:16;;;;;;;2.40;1.50;;;;;;;23.91;64.47;101369.03;5046407;28;20211;-76
2022/06/28 11:19:50;;;;;;;1.95;1.65;;;;;;;23.85;63.40;101373.91;5048064;28;20234;-76
2022/06/28 11:22:19;;;;;;;1.70;1.60;;;;;;;23.85;64.65;101372.13;5047289;28;20214;-76
2022/06/28 11:24:46;;;;;;;1.50;1.30;;;;;;;23.83;64.17;101373.19;5050130;28;20540;-76
2022/06/28 11:27:23;;;;;;;2.00;1.60;;;;;;;23.94;69.98;101362.63;5042422;28;20209;-75
2022/06/28 11:29:55;;;;;;;1.60;1.50;;;;;;;24.31;67.19;101360.84;5063613;28;20235;-76
2022/06/28 11:32:24;;;;;;;1.60;1.50;;;;;;;24.35;60.55;101367.63;5050142;28;20562;-76
2022/06/28 11:34:58;;;;;;;2.13;1.50;;;;;;;24.63;64.00;101356.81;5049189;28;20203;-76
2022/06/28 11:37:25;;;;;;;1.50;1.40;;;;;;;24.98;63.04;101350.63;5049120;28;20604;-76
2022/06/28 11:39:57;;;;;;;1.25;1.20;;;;;;;25.28;62.00;101356.34;5050329;28;20257;-76